Time;durP1;ratioP1;P1;durP2;ratioP2;P2;SDS_P1;SDS_P2;PMS_P1;PMS_P2;Temp;Humidity;BMP_temperature;BMP_pressure;BME280_temperature;BME280_humidity;BME280_pressure;Samples;Min_cycle;Max_cycle;Signal;HPM_P1;HPM_P2
2024/04/25 00:01:15;;;;;;;;;;;;;;;;;;6737950;26;19983;-62
2024/04/25 00:04:20;;;;;;;;;;;;;;;;;;6734880;26;20127;-61
2024/04/25 00:07:26;;;;;;;;;;;;;;;;;;6738269;26;19925;-61
2024/04/25 00:10:31;;;;;;;;;;;;;;;;;;6737282;26;20130;-62
2024/04/25 00:13:39;;;;;;;;;;;;;;;;;;6737085;26;19948;-62
2024/04/25 00:16:44;;;;;;;;;;;;;;;;;;6737854;26;19929;-63
2024/04/25 00:19:50;;;;;;;;;;;;;;;;;;6737492;26;20013;-62
2024/04/25 00:22:55;;;;;;;;;;;;;;;;;;6737175;26;19932;-61
2024/04/25 00:26:00;;;;;;;;;;;;;;;;;;6736912;26;19925;-61
2024/04/25 00:29:08;;;;;;;;;;;;;;;;;;6737088;26;19932;-62
2024/04/25 00:32:13;;;;;;;;;;;;;;;;;;6737987;26;19925;-61
2024/04/25 00:35:19;;;;;;;;;;;;;;;;;;6696773;26;19925;-62
2024/04/25 00:38:24;;;;;;;;;;;;;;;;;;6737180;26;19924;-60
2024/04/25 00:41:29;;;;;;;;;;;;;;;;;;6737492;26;19932;-61
2024/04/25 00:44:38;;;;;;;;;;;;;;;;;;6692829;26;19926;-62
2024/04/25 00:47:43;;;;;;;;;;;;;;;;;;6692905;26;19932;-62
2024/04/25 00:50:49;;;;;;;;;;;;;;;;;;6719196;26;19925;-62
2024/04/25 00:53:54;;;;;;;;;;;;;;;;;;6736140;26;20018;-63
2024/04/25 00:57:02;;;;;;;;;;;;;;;;;;6737115;26;19925;-62
2024/04/25 01:00:11;;;;;;;;;;;;;;;;;;6736306;26;19932;-62
2024/04/25 01:03:17;;;;;;;;;;;;;;;;;;6735930;26;20141;-63
2024/04/25 01:06:23;;;;;;;;;;;;;;;;;;6736657;26;20179;-63
2024/04/25 01:09:28;;;;;;;;;;;;;;;;;;6736475;26;19925;-62
2024/04/25 01:12:34;;;;;;;;;;;;;;;;;;6734413;26;19949;-61
2024/04/25 01:15:42;;;;;;;;;;;;;;;;;;6735309;26;20001;-62
2024/04/25 01:18:47;;;;;;;;;;;;;;;;;;6735129;26;19925;-62
2024/04/25 01:21:52;;;;;;;;;;;;;;;;;;6735540;26;19932;-62
2024/04/25 01:25:00;;;;;;;;;;;;;;;;;;6734970;26;19929;-61
2024/04/25 01:28:05;;;;;;;;;;;;;;;;;;6735623;26;19941;-62
2024/04/25 01:31:11;;;;;;;;;;;;;;;;;;6735914;26;20289;-61
2024/04/25 01:34:16;;;;;;;;;;;;;;;;;;6735127;26;19997;-61
2024/04/25 01:37:21;;;;;;;;;;;;;;;;;;6735588;26;20107;-61
2024/04/25 01:40:29;;;;;;;;;;;;;;;;;;6734895;26;19953;-62
2024/04/25 01:43:34;;;;;;;;;;;;;;;;;;6734821;26;19931;-62
2024/04/25 01:46:40;;;;;;;;;;;;;;;;;;6735866;26;20008;-62
2024/04/25 01:49:45;;;;;;;;;;;;;;;;;;6735002;26;19929;-61
2024/04/25 01:52:50;;;;;;;;;;;;;;;;;;6735024;26;19925;-61
2024/04/25 01:55:58;;;;;;;;;;;;;;;;;;6724612;26;20290;-62
2024/04/25 01:59:03;;;;;;;;;;;;;;;;;;6734245;26;19932;-62
2024/04/25 02:02:09;;;;;;;;;;;;;;;;;;6735086;26;19948;-61
2024/04/25 02:05:14;;;;;;;;;;;;;;;;;;6734545;26;19925;-61
2024/04/25 02:08:19;;;;;;;;;;;;;;;;;;6734377;26;20184;-61
2024/04/25 02:11:27;;;;;;;;;;;;;;;;;;6734625;26;19925;-62
2024/04/25 02:14:33;;;;;;;;;;;;;;;;;;6732389;26;19948;-61
2024/04/25 02:17:39;;;;;;;;;;;;;;;;;;6734489;26;19932;-62
2024/04/25 02:27:32;;;;;;;;;;;;;;;;;;6725265;26;19925;-63
2024/04/25 02:30:37;;;;;;;;;;;;;;;;;;6734839;26;20000;-61
2024/04/25 02:33:43;;;;;;;;;;;;;;;;;;6733765;26;20514;-61
2024/04/25 02:36:48;;;;;;;;;;;;;;;;;;6733701;26;19986;-62
2024/04/25 02:39:53;;;;;;;;;;;;;;;;;;6733945;26;20223;-61
2024/04/25 02:43:01;;;;;;;;;;;;;;;;;;6724733;26;19936;-60
2024/04/25 02:46:06;;;;;;;;;;;;;;;;;;6734358;26;20020;-62
2024/04/25 02:49:09;;;;;;;;;;;;;;;;;;6736525;26;20092;-63
2024/04/25 02:52:14;;;;;;;;;;;;;;;;;;6739224;26;19925;-62
2024/04/25 02:55:17;;;;;;;;;;;;;;;;;;6737341;26;19925;-62
2024/04/25 02:58:25;;;;;;;;;;;;;;;;;;6738994;26;19932;-62
2024/04/25 03:01:30;;;;;;;;;;;;;;;;;;6738080;26;20123;-62
2024/04/25 03:04:36;;;;;;;;;;;;;;;;;;6735860;26;20115;-61
2024/04/25 03:07:38;;;;;;;;;;;;;;;;;;6737844;26;20110;-61
2024/04/25 03:10:43;;;;;;;;;;;;;;;;;;6738337;26;20026;-61
2024/04/25 03:13:51;;;;;;;;;;;;;;;;;;6736781;26;19995;-61
2024/04/25 03:16:59;;;;;;;;;;;;;;;;;;6737997;26;19932;-62
2024/04/25 03:20:01;;;;;;;;;;;;;;;;;;6738009;26;19925;-62
2024/04/25 03:23:07;;;;;;;;;;;;;;;;;;6738140;26;19932;-62
2024/04/25 03:26:09;;;;;;;;;;;;;;;;;;6738554;26;19952;-62
2024/04/25 03:29:17;;;;;;;;;;;;;;;;;;6737296;26;19932;-62
2024/04/25 03:32:23;;;;;;;;;;;;;;;;;;6737731;26;19925;-61
2024/04/25 03:35:28;;;;;;;;;;;;;;;;;;6737838;26;19933;-62
2024/04/25 03:38:34;;;;;;;;;;;;;;;;;;6741045;26;19993;-61
2024/04/25 03:41:39;;;;;;;;;;;;;;;;;;6736188;26;19925;-61
2024/04/25 03:44:47;;;;;;;;;;;;;;;;;;6737164;26;19927;-61
2024/04/25 03:47:53;;;;;;;;;;;;;;;;;;6736165;26;20144;-62
2024/04/25 03:50:59;;;;;;;;;;;;;;;;;;6728595;26;19925;-63
2024/04/25 03:54:05;;;;;;;;;;;;;;;;;;6737567;26;19925;-60
2024/04/25 03:57:10;;;;;;;;;;;;;;;;;;6737931;26;20032;-63
2024/04/25 04:00:18;;;;;;;;;;;;;;;;;;6736150;26;20126;-60
2024/04/25 04:03:23;;;;;;;;;;;;;;;;;;6737290;26;20105;-61
2024/04/25 04:06:29;;;;;;;;;;;;;;;;;;6737867;26;19932;-62
2024/04/25 04:09:34;;;;;;;;;;;;;;;;;;6737241;26;21055;-61
2024/04/25 04:12:39;;;;;;;;;;;;;;;;;;6737407;26;20011;-62
2024/04/25 04:15:47;;;;;;;;;;;;;;;;;;6737481;26;20091;-63
2024/04/25 04:18:52;;;;;;;;;;;;;;;;;;6733428;26;20107;-62
2024/04/25 04:21:57;;;;;;;;;;;;;;;;;;6737639;26;20103;-61
2024/04/25 04:25:03;;;;;;;;;;;;;;;;;;6735966;26;19925;-63
2024/04/25 04:28:08;;;;;;;;;;;;;;;;;;6737317;26;19925;-61
2024/04/25 04:31:19;;;;;;;;;;;;;;;;;;6737794;26;19932;-62
2024/04/25 04:34:25;;;;;;;;;;;;;;;;;;6736661;26;19925;-62
2024/04/25 04:37:31;;;;;;;;;;;;;;;;;;6736789;26;19925;-62
2024/04/25 04:40:36;;;;;;;;;;;;;;;;;;6737254;26;19929;-61
2024/04/25 04:43:41;;;;;;;;;;;;;;;;;;6736735;26;19956;-61
2024/04/25 04:46:49;;;;;;;;;;;;;;;;;;6737439;26;19929;-61
2024/04/25 04:49:54;;;;;;;;;;;;;;;;;;6736952;26;19925;-61
2024/04/25 04:52:59;;;;;;;;;;;;;;;;;;6738076;26;19925;-61
2024/04/25 04:56:05;;;;;;;;;;;;;;;;;;6739738;26;19925;-62
2024/04/25 04:59:10;;;;;;;;;;;;;;;;;;6736479;26;20122;-61
2024/04/25 05:02:18;;;;;;;;;;;;;;;;;;6736902;26;20119;-61
2024/04/25 05:05:23;;;;;;;;;;;;;;;;;;6736389;26;19932;-61
2024/04/25 05:08:31;;;;;;;;;;;;;;;;;;6705429;26;19929;-61
2024/04/25 05:11:36;;;;;;;;;;;;;;;;;;6736310;26;19925;-62
2024/04/25 05:14:42;;;;;;;;;;;;;;;;;;6735728;26;20018;-62
2024/04/25 05:17:50;;;;;;;;;;;;;;;;;;6735883;26;19925;-62
2024/04/25 05:20:56;;;;;;;;;;;;;;;;;;6736633;26;19932;-61
2024/04/25 05:24:02;;;;;;;;;;;;;;;;;;6735674;26;19932;-61
2024/04/25 05:27:07;;;;;;;;;;;;;;;;;;6736340;26;19925;-61
2024/04/25 05:30:13;;;;;;;;;;;;;;;;;;6735690;26;20367;-61
2024/04/25 05:33:21;;;;;;;;;;;;;;;;;;6735405;26;20237;-61
2024/04/25 05:36:26;;;;;;;;;;;;;;;;;;6736073;26;20000;-62
2024/04/25 05:39:32;;;;;;;;;;;;;;;;;;6735316;26;19925;-62
2024/04/25 05:42:37;;;;;;;;;;;;;;;;;;6734562;26;19941;-62
2024/04/25 05:45:42;;;;;;;;;;;;;;;;;;6736296;26;20033;-62
2024/04/25 05:48:50;;;;;;;;;;;;;;;;;;6735319;26;19925;-63
2024/04/25 05:51:55;;;;;;;;;;;;;;;;;;6705164;26;20019;-62
2024/04/25 05:55:02;;;;;;;;;;;;;;;;;;6704510;26;19925;-62
2024/04/25 05:58:07;;;;;;;;;;;;;;;;;;6735519;26;19924;-61
2024/04/25 06:01:16;;;;;;;;;;;;;;;;;;6735909;26;19925;-62
2024/04/25 06:04:24;;;;;;;;;;;;;;;;;;6725767;26;19929;-61
2024/04/25 06:07:29;;;;;;;;;;;;;;;;;;6734998;26;19925;-61
2024/04/25 06:10:34;;;;;;;;;;;;;;;;;;6738722;26;20152;-63
2024/04/25 06:13:41;;;;;;;;;;;;;;;;;;6734780;26;19925;-62
2024/04/25 06:16:46;;;;;;;;;;;;;;;;;;6734925;26;19932;-63
2024/04/25 06:19:54;;;;;;;;;;;;;;;;;;6734637;26;19925;-63
2024/04/25 06:23:00;;;;;;;;;;;;;;;;;;6734841;26;19932;-61
2024/04/25 06:26:06;;;;;;;;;;;;;;;;;;6739160;26;19948;-62
2024/04/25 06:29:11;;;;;;;;;;;;;;;;;;6738760;26;19925;-62
2024/04/25 06:32:16;;;;;;;;;;;;;;;;;;6739854;26;19932;-61
2024/04/25 06:35:24;;;;;;;;;;;;;;;;;;6738960;26;20444;-61
2024/04/25 06:38:29;;;;;;;;;;;;;;;;;;6738483;26;19926;-62
2024/04/25 06:41:35;;;;;;;;;;;;;;;;;;6738776;26;20248;-62
2024/04/25 06:44:55;;;;;;;;;;;;;;;;;;6739008;26;19932;-61
2024/04/25 06:48:00;;;;;;;;;;;;;;;;;;6738700;26;20459;-61
2024/04/25 06:51:08;;;;;;;;;;;;;;;;;;6739129;26;19935;-61
2024/04/25 06:54:13;;;;;;;;;;;;;;;;;;6738687;26;19925;-62
2024/04/25 06:57:18;;;;;;;;;;;;;;;;;;6738249;26;20560;-61
2024/04/25 07:00:24;;;;;;;;;;;;;;;;;;6738596;26;19925;-61
2024/04/25 07:03:29;;;;;;;;;;;;;;;;;;6738771;26;19925;-61
2024/04/25 07:06:37;;;;;;;;;;;;;;;;;;6738892;26;19935;-61
2024/04/25 07:09:43;;;;;;;;;;;;;;;;;;6738009;26;19968;-62
2024/04/25 07:12:48;;;;;;;;;;;;;;;;;;6737036;26;19925;-62
2024/04/25 07:15:54;;;;;;;;;;;;;;;;;;6738224;26;20255;-62
2024/04/25 07:18:59;;;;;;;;;;;;;;;;;;6737674;26;19925;-61
2024/04/25 07:22:07;;;;;;;;;;;;;;;;;;6738663;26;19973;-62
2024/04/25 07:25:13;;;;;;;;;;;;;;;;;;6740768;26;19987;-61
2024/04/25 07:28:20;;;;;;;;;;;;;;;;;;6737654;26;19925;-62
2024/04/25 07:31:26;;;;;;;;;;;;;;;;;;6738141;26;20015;-63
2024/04/25 07:34:31;;;;;;;;;;;;;;;;;;6737049;26;20022;-62
2024/04/25 07:37:39;;;;;;;;;;;;;;;;;;6737352;26;19925;-61
2024/04/25 07:40:44;;;;;;;;;;;;;;;;;;6737765;26;20142;-62
2024/04/25 07:43:50;;;;;;;;;;;;;;;;;;6693340;26;19932;-61
2024/04/25 07:46:55;;;;;;;;;;;;;;;;;;6694014;26;19986;-61
2024/04/25 07:50:01;;;;;;;;;;;;;;;;;;6693828;26;20160;-62
2024/04/25 07:53:09;;;;;;;;;;;;;;;;;;6691775;26;19932;-61
2024/04/25 07:56:14;;;;;;;;;;;;;;;;;;6693764;26;20303;-62
2024/04/25 07:59:19;;;;;;;;;;;;;;;;;;6692915;26;19925;-61
2024/04/25 08:02:25;;;;;;;;;;;;;;;;;;6693227;26;19933;-62
2024/04/25 08:05:30;;;;;;;;;;;;;;;;;;6693056;26;20921;-62
2024/04/25 08:08:38;;;;;;;;;;;;;;;;;;6692244;26;19943;-62
2024/04/25 08:11:45;;;;;;;;;;;;;;;;;;6693695;26;20260;-61
2024/04/25 08:14:50;;;;;;;;;;;;;;;;;;6693692;26;19925;-62
2024/04/25 08:17:55;;;;;;;;;;;;;;;;;;6692917;26;20614;-61
2024/04/25 08:21:01;;;;;;;;;;;;;;;;;;6693437;26;19925;-61
2024/04/25 08:24:09;;;;;;;;;;;;;;;;;;6692814;26;19929;-61
2024/04/25 08:27:14;;;;;;;;;;;;;;;;;;6693179;26;19926;-62
2024/04/25 08:30:20;;;;;;;;;;;;;;;;;;6692550;26;19926;-62
2024/04/25 08:33:25;;;;;;;;;;;;;;;;;;6720530;26;19933;-61
2024/04/25 08:36:31;;;;;;;;;;;;;;;;;;6693536;26;19953;-62
2024/04/25 08:39:39;;;;;;;;;;;;;;;;;;6695025;26;19926;-61
2024/04/25 08:42:49;;;;;;;;;;;;;;;;;;6722147;26;19925;-62
2024/04/25 08:45:55;;;;;;;;;;;;;;;;;;6735950;26;19925;-61
2024/04/25 08:49:01;;;;;;;;;;;;;;;;;;6734634;26;19924;-60
2024/04/25 08:52:07;;;;;;;;;;;;;;;;;;6736644;26;20144;-61
2024/04/25 08:55:17;;;;;;;;;;;;;;;;;;6736521;26;19932;-62
2024/04/25 08:58:23;;;;;;;;;;;;;;;;;;6736450;26;19929;-61
2024/04/25 09:01:28;;;;;;;;;;;;;;;;;;6736761;26;20012;-62
2024/04/25 09:04:35;;;;;;;;;;;;;;;;;;6736341;26;20007;-61
2024/04/25 09:07:40;;;;;;;;;;;;;;;;;;6736361;26;19925;-62
2024/04/25 09:10:48;;;;;;;;;;;;;;;;;;6736623;26;19932;-62
2024/04/25 09:13:54;;;;;;;;;;;;;;;;;;6735744;26;19925;-61
2024/04/25 09:16:59;;;;;;;;;;;;;;;;;;6736643;26;19925;-61
2024/04/25 09:20:05;;;;;;;;;;;;;;;;;;6735673;26;20062;-63
2024/04/25 09:23:10;;;;;;;;;;;;;;;;;;6736085;26;19956;-60
2024/04/25 09:26:18;;;;;;;;;;;;;;;;;;6736357;26;19948;-61
2024/04/25 09:29:23;;;;;;;;;;;;;;;;;;6735131;26;19953;-60
2024/04/25 09:32:28;;;;;;;;;;;;;;;;;;6734956;26;19932;-61
2024/04/25 09:35:39;;;;;;;;;;;;;;;;;;6735614;26;19925;-62
2024/04/25 09:38:45;;;;;;;;;;;;;;;;;;6735489;26;19963;-61
2024/04/25 09:41:53;;;;;;;;;;;;;;;;;;6725340;26;19925;-61
2024/04/25 09:44:58;;;;;;;;;;;;;;;;;;6735137;26;19932;-62
2024/04/25 09:48:08;;;;;;;;;;;;;;;;;;6734783;26;19924;-61
2024/04/25 09:51:16;;;;;;;;;;;;;;;;;;6705472;26;19925;-61
2024/04/25 09:54:22;;;;;;;;;;;;;;;;;;6735675;26;19936;-61
2024/04/25 09:57:30;;;;;;;;;;;;;;;;;;6736349;26;19925;-61
2024/04/25 10:00:35;;;;;;;;;;;;;;;;;;6736202;26;19925;-65
2024/04/25 10:03:41;;;;;;;;;;;;;;;;;;6735285;26;20011;-61
2024/04/25 10:06:46;;;;;;;;;;;;;;;;;;6735010;26;19937;-62
2024/04/25 10:09:52;;;;;;;;;;;;;;;;;;6733804;26;19931;-61
2024/04/25 10:13:00;;;;;;;;;;;;;;;;;;6734405;26;20106;-60
2024/04/25 10:16:06;;;;;;;;;;;;;;;;;;6735152;26;20501;-61
2024/04/25 10:19:12;;;;;;;;;;;;;;;;;;6734636;26;20017;-61
2024/04/25 10:22:21;;;;;;;;;;;;;;;;;;6734926;26;19925;-60
2024/04/25 10:25:26;;;;;;;;;;;;;;;;;;6734331;26;20024;-60
2024/04/25 10:28:34;;;;;;;;;;;;;;;;;;6733353;26;19925;-62
2024/04/25 10:31:40;;;;;;;;;;;;;;;;;;6734229;26;19932;-61
2024/04/25 10:34:47;;;;;;;;;;;;;;;;;;6734033;26;20106;-61
2024/04/25 10:37:52;;;;;;;;;;;;;;;;;;6734088;26;20118;-61
2024/04/25 10:40:58;;;;;;;;;;;;;;;;;;6734420;26;19925;-60
2024/04/25 10:44:06;;;;;;;;;;;;;;;;;;6734444;26;20010;-62
2024/04/25 10:47:11;;;;;;;;;;;;;;;;;;6735858;26;19932;-62
2024/04/25 10:50:17;;;;;;;;;;;;;;;;;;6734582;26;20316;-61
2024/04/25 10:53:23;;;;;;;;;;;;;;;;;;6733840;26;19932;-62
2024/04/25 10:56:28;;;;;;;;;;;;;;;;;;6734524;26;20034;-60
2024/04/25 10:59:36;;;;;;;;;;;;;;;;;;6734221;26;21025;-61
2024/04/25 11:02:42;;;;;;;;;;;;;;;;;;6733815;26;19932;-62
2024/04/25 11:05:47;;;;;;;;;;;;;;;;;;6695041;26;19925;-62
2024/04/25 11:08:53;;;;;;;;;;;;;;;;;;6734327;26;20010;-62
2024/04/25 11:11:59;;;;;;;;;;;;;;;;;;6741616;26;19925;-62
2024/04/25 11:15:15;;;;;;;;;;;;;;;;;;6738495;26;19925;-61
2024/04/25 11:18:20;;;;;;;;;;;;;;;;;;6737998;26;19931;-61
2024/04/25 11:21:30;;;;;;;;;;;;;;;;;;6738138;26;19932;-61
2024/04/25 11:24:36;;;;;;;;;;;;;;;;;;6738828;26;20489;-62
2024/04/25 11:27:41;;;;;;;;;;;;;;;;;;6731074;26;19932;-61
2024/04/25 11:30:49;;;;;;;;;;;;;;;;;;6737630;26;19932;-62
2024/04/25 11:33:54;;;;;;;;;;;;;;;;;;6737269;26;20108;-62
2024/04/25 11:37:00;;;;;;;;;;;;;;;;;;6738418;26;19924;-61
2024/04/25 11:40:06;;;;;;;;;;;;;;;;;;6737614;26;19925;-61
2024/04/25 11:43:14;;;;;;;;;;;;;;;;;;6736548;26;19932;-60
2024/04/25 11:46:22;;;;;;;;;;;;;;;;;;6738193;26;20010;-61
2024/04/25 11:49:27;;;;;;;;;;;;;;;;;;6737536;26;19925;-61
2024/04/25 11:52:32;;;;;;;;;;;;;;;;;;6737183;26;19925;-62
2024/04/25 11:55:37;;;;;;;;;;;;;;;;;;6737881;26;19925;-61
2024/04/25 11:58:43;;;;;;;;;;;;;;;;;;6737304;26;19925;-62
2024/04/25 12:01:50;;;;;;;;;;;;;;;;;;6728060;26;19951;-62
2024/04/25 12:04:58;;;;;;;;;;;;;;;;;;6737071;26;19936;-61
2024/04/25 12:08:06;;;;;;;;;;;;;;;;;;6737002;26;19925;-61
2024/04/25 12:11:12;;;;;;;;;;;;;;;;;;6737431;26;20196;-61
2024/04/25 12:14:17;;;;;;;;;;;;;;;;;;6736555;26;19925;-62
2024/04/25 12:17:26;;;;;;;;;;;;;;;;;;6736754;26;19925;-61
2024/04/25 12:20:34;;;;;;;;;;;;;;;;;;6735985;26;20042;-61
2024/04/25 12:23:39;;;;;;;;;;;;;;;;;;6736568;26;20022;-62
2024/04/25 12:26:45;;;;;;;;;;;;;;;;;;6740497;26;20010;-61
2024/04/25 12:29:51;;;;;;;;;;;;;;;;;;6736974;26;19932;-61
2024/04/25 12:32:59;;;;;;;;;;;;;;;;;;6736845;26;20277;-63
2024/04/25 12:36:04;;;;;;;;;;;;;;;;;;6737196;26;19951;-61
2024/04/25 12:39:10;;;;;;;;;;;;;;;;;;6737005;26;20009;-63
2024/04/25 12:42:15;;;;;;;;;;;;;;;;;;6736865;26;20125;-62
2024/04/25 12:45:22;;;;;;;;;;;;;;;;;;6736825;26;19932;-62
2024/04/25 12:48:31;;;;;;;;;;;;;;;;;;6736288;26;19925;-62
2024/04/25 12:51:37;;;;;;;;;;;;;;;;;;6737497;26;19933;-62
2024/04/25 12:54:42;;;;;;;;;;;;;;;;;;6737252;26;19924;-62
2024/04/25 12:57:49;;;;;;;;;;;;;;;;;;6736173;26;20125;-62
2024/04/25 13:00:54;;;;;;;;;;;;;;;;;;6737422;26;19925;-62
2024/04/25 13:04:02;;;;;;;;;;;;;;;;;;6736803;26;20014;-62
2024/04/25 13:07:07;;;;;;;;;;;;;;;;;;6736982;26;20113;-61
2024/04/25 13:10:13;;;;;;;;;;;;;;;;;;6736393;26;19927;-62
2024/04/25 13:13:19;;;;;;;;;;;;;;;;;;6704871;26;19932;-62
2024/04/25 13:16:26;;;;;;;;;;;;;;;;;;6736910;26;19932;-61
2024/04/25 13:19:34;;;;;;;;;;;;;;;;;;6735821;26;20403;-62
2024/04/25 13:22:39;;;;;;;;;;;;;;;;;;6735952;26;19925;-61
2024/04/25 13:25:45;;;;;;;;;;;;;;;;;;6736386;26;20214;-61
2024/04/25 13:28:50;;;;;;;;;;;;;;;;;;6735840;26;19925;-61
2024/04/25 13:31:55;;;;;;;;;;;;;;;;;;6735645;26;19932;-61
2024/04/25 13:35:04;;;;;;;;;;;;;;;;;;6736010;26;20107;-61
2024/04/25 13:38:09;;;;;;;;;;;;;;;;;;6735702;26;19932;-62
2024/04/25 13:41:14;;;;;;;;;;;;;;;;;;6737397;26;19924;-61
2024/04/25 13:44:19;;;;;;;;;;;;;;;;;;6737031;26;19925;-62
2024/04/25 13:47:25;;;;;;;;;;;;;;;;;;6735530;26;20834;-62
2024/04/25 13:50:33;;;;;;;;;;;;;;;;;;6705224;26;19932;-62
2024/04/25 13:53:38;;;;;;;;;;;;;;;;;;6735547;26;19925;-61
2024/04/25 13:56:44;;;;;;;;;;;;;;;;;;6735461;26;19959;-62
2024/04/25 13:59:49;;;;;;;;;;;;;;;;;;6734974;26;19925;-61
2024/04/25 14:02:54;;;;;;;;;;;;;;;;;;6733837;26;19925;-61
2024/04/25 14:06:02;;;;;;;;;;;;;;;;;;6735322;26;19925;-60
2024/04/25 14:09:08;;;;;;;;;;;;;;;;;;6734931;26;19932;-62
2024/04/25 14:12:13;;;;;;;;;;;;;;;;;;6734944;26;20262;-63
2024/04/25 14:15:18;;;;;;;;;;;;;;;;;;6734969;26;20099;-62
2024/04/25 14:18:25;;;;;;;;;;;;;;;;;;6734821;26;20078;-60
2024/04/25 14:21:33;;;;;;;;;;;;;;;;;;6735280;26;20072;-61
2024/04/25 14:24:40;;;;;;;;;;;;;;;;;;6733927;26;19974;-62
2024/04/25 14:31:09;;;;;;;;;;;;;;;;;;6735520;26;20137;-62
2024/04/25 14:34:14;;;;;;;;;;;;;;;;;;6734554;26;19990;-63
2024/04/25 14:37:24;;;;;;;;;;;;;;;;;;6734709;26;20022;-62
2024/04/25 14:40:29;;;;;;;;;;;;;;;;;;6735462;26;19932;-63
2024/04/25 14:43:35;;;;;;;;;;;;;;;;;;6734129;26;19925;-62
2024/04/25 14:46:40;;;;;;;;;;;;;;;;;;6739123;26;19932;-61
2024/04/25 14:49:46;;;;;;;;;;;;;;;;;;6738782;26;20056;-63
2024/04/25 14:52:54;;;;;;;;;;;;;;;;;;6738620;26;20118;-62
2024/04/25 14:55:59;;;;;;;;;;;;;;;;;;6741434;26;19925;-60
2024/04/25 14:59:05;;;;;;;;;;;;;;;;;;6738735;26;19925;-61
2024/04/25 15:02:12;;;;;;;;;;;;;;;;;;6709092;26;19924;-60
2024/04/25 15:05:17;;;;;;;;;;;;;;;;;;6737459;26;19925;-62
2024/04/25 15:08:25;;;;;;;;;;;;;;;;;;6738398;26;19925;-63
2024/04/25 15:11:31;;;;;;;;;;;;;;;;;;6739080;26;19932;-62
2024/04/25 15:14:36;;;;;;;;;;;;;;;;;;6737984;26;19948;-62
2024/04/25 15:17:41;;;;;;;;;;;;;;;;;;6738288;26;19925;-62
2024/04/25 15:20:47;;;;;;;;;;;;;;;;;;6738555;26;19932;-62
2024/04/25 15:23:55;;;;;;;;;;;;;;;;;;6738218;26;19936;-62
2024/04/25 15:27:00;;;;;;;;;;;;;;;;;;6738826;26;20033;-63
2024/04/25 15:30:06;;;;;;;;;;;;;;;;;;6738182;26;19925;-62
2024/04/25 15:33:11;;;;;;;;;;;;;;;;;;6738365;26;19932;-62
2024/04/25 15:36:17;;;;;;;;;;;;;;;;;;6738918;26;20126;-62
2024/04/25 15:39:25;;;;;;;;;;;;;;;;;;6737912;26;19924;-61
2024/04/25 15:42:30;;;;;;;;;;;;;;;;;;6737371;26;20099;-62
2024/04/25 15:45:35;;;;;;;;;;;;;;;;;;6738152;26;19925;-63
2024/04/25 15:48:40;;;;;;;;;;;;;;;;;;6737967;26;19979;-61
2024/04/25 15:51:46;;;;;;;;;;;;;;;;;;6737665;26;20293;-62
2024/04/25 15:54:54;;;;;;;;;;;;;;;;;;6737795;26;20430;-62
2024/04/25 15:57:59;;;;;;;;;;;;;;;;;;6737935;26;19932;-62
2024/04/25 16:01:05;;;;;;;;;;;;;;;;;;6739061;26;24740;-61
2024/04/25 16:04:10;;;;;;;;;;;;;;;;;;6737356;26;19925;-61
2024/04/25 16:07:15;;;;;;;;;;;;;;;;;;6738253;26;19928;-63
2024/04/25 16:10:23;;;;;;;;;;;;;;;;;;6737503;26;19932;-63
2024/04/25 16:13:29;;;;;;;;;;;;;;;;;;6740512;26;19925;-61
2024/04/25 16:16:34;;;;;;;;;;;;;;;;;;6727682;26;20110;-61
2024/04/25 16:19:41;;;;;;;;;;;;;;;;;;6736826;26;19932;-61
2024/04/25 16:22:46;;;;;;;;;;;;;;;;;;6737319;26;19924;-61
2024/04/25 16:25:55;;;;;;;;;;;;;;;;;;6737824;26;20004;-62
2024/04/25 16:29:00;;;;;;;;;;;;;;;;;;6737002;26;19925;-62
2024/04/25 16:32:05;;;;;;;;;;;;;;;;;;6737468;26;19932;-62
2024/04/25 16:35:11;;;;;;;;;;;;;;;;;;6736622;26;19925;-61
2024/04/25 16:38:16;;;;;;;;;;;;;;;;;;6736938;26;19925;-62
2024/04/25 16:41:24;;;;;;;;;;;;;;;;;;6737440;26;19925;-61
2024/04/25 16:44:29;;;;;;;;;;;;;;;;;;6736574;26;19932;-61
2024/04/25 16:47:35;;;;;;;;;;;;;;;;;;6737425;26;19932;-60
2024/04/25 16:50:40;;;;;;;;;;;;;;;;;;6737509;26;20000;-62
2024/04/25 16:53:46;;;;;;;;;;;;;;;;;;6705737;26;19929;-62
2024/04/25 16:56:54;;;;;;;;;;;;;;;;;;6737552;26;20067;-62
2024/04/25 16:59:59;;;;;;;;;;;;;;;;;;6737266;26;19925;-62
2024/04/25 17:03:06;;;;;;;;;;;;;;;;;;6736850;26;19925;-62
2024/04/25 17:06:13;;;;;;;;;;;;;;;;;;6737323;26;20005;-62
2024/04/25 17:09:18;;;;;;;;;;;;;;;;;;6736160;26;20022;-63
2024/04/25 17:12:26;;;;;;;;;;;;;;;;;;6692157;26;19932;-63
2024/04/25 17:15:32;;;;;;;;;;;;;;;;;;6693201;26;20059;-61
2024/04/25 17:18:37;;;;;;;;;;;;;;;;;;6662987;26;19949;-61
2024/04/25 17:21:43;;;;;;;;;;;;;;;;;;6662705;26;19933;-60
2024/04/25 17:24:48;;;;;;;;;;;;;;;;;;6691917;26;19932;-60
2024/04/25 17:27:56;;;;;;;;;;;;;;;;;;6665608;26;19926;-62
2024/04/25 17:31:02;;;;;;;;;;;;;;;;;;6692964;26;20286;-62
2024/04/25 17:34:07;;;;;;;;;;;;;;;;;;6692231;26;19925;-61
2024/04/25 17:37:13;;;;;;;;;;;;;;;;;;6692740;26;20009;-61
2024/04/25 17:40:18;;;;;;;;;;;;;;;;;;6691785;26;19932;-62
2024/04/25 17:43:26;;;;;;;;;;;;;;;;;;6719368;26;19925;-62
2024/04/25 17:46:31;;;;;;;;;;;;;;;;;;6736697;26;19925;-61
2024/04/25 17:49:37;;;;;;;;;;;;;;;;;;6735964;26;19933;-62
2024/04/25 17:52:43;;;;;;;;;;;;;;;;;;6736172;26;19935;-60
2024/04/25 17:55:48;;;;;;;;;;;;;;;;;;6736395;26;19924;-63
2024/04/25 17:58:56;;;;;;;;;;;;;;;;;;6735558;26;20114;-62
2024/04/25 18:02:04;;;;;;;;;;;;;;;;;;6736210;26;20115;-61
2024/04/25 18:05:09;;;;;;;;;;;;;;;;;;6735938;26;19924;-62
2024/04/25 18:08:14;;;;;;;;;;;;;;;;;;6736051;26;19980;-62
2024/04/25 18:11:20;;;;;;;;;;;;;;;;;;6690660;26;19952;-63
2024/04/25 18:14:28;;;;;;;;;;;;;;;;;;6691567;26;19956;-62
2024/04/25 18:17:33;;;;;;;;;;;;;;;;;;6691682;26;20057;-62
2024/04/25 18:20:38;;;;;;;;;;;;;;;;;;6694838;26;19937;-62
2024/04/25 18:23:44;;;;;;;;;;;;;;;;;;6696135;26;19929;-61
2024/04/25 18:26:50;;;;;;;;;;;;;;;;;;6696404;26;20009;-62
2024/04/25 18:29:58;;;;;;;;;;;;;;;;;;6694801;26;19925;-62
2024/04/25 18:33:03;;;;;;;;;;;;;;;;;;6695941;26;19926;-62
2024/04/25 18:36:09;;;;;;;;;;;;;;;;;;6696570;26;19925;-61
2024/04/25 18:39:14;;;;;;;;;;;;;;;;;;6695724;26;19933;-62
2024/04/25 18:42:19;;;;;;;;;;;;;;;;;;6709620;26;20104;-61
2024/04/25 18:45:27;;;;;;;;;;;;;;;;;;6710193;26;19936;-62
2024/04/25 18:48:32;;;;;;;;;;;;;;;;;;6739120;26;19924;-62
2024/04/25 18:51:38;;;;;;;;;;;;;;;;;;6710421;26;19925;-61
2024/04/25 18:54:46;;;;;;;;;;;;;;;;;;6739884;26;19925;-62
2024/04/25 18:57:51;;;;;;;;;;;;;;;;;;6738874;26;19925;-61
2024/04/25 19:00:59;;;;;;;;;;;;;;;;;;6739546;26;20260;-61
2024/04/25 19:04:04;;;;;;;;;;;;;;;;;;6738806;26;19948;-61
2024/04/25 19:07:10;;;;;;;;;;;;;;;;;;6709728;26;19925;-62
2024/04/25 19:10:15;;;;;;;;;;;;;;;;;;6729348;26;19925;-62
2024/04/25 19:13:21;;;;;;;;;;;;;;;;;;6655032;26;20131;-61
2024/04/25 19:16:29;;;;;;;;;;;;;;;;;;6665777;26;20022;-62
2024/04/25 19:19:35;;;;;;;;;;;;;;;;;;6650932;26;19933;-61
2024/04/25 19:22:40;;;;;;;;;;;;;;;;;;6651708;26;20100;-62
2024/04/25 19:25:45;;;;;;;;;;;;;;;;;;6652117;26;19926;-61
2024/04/25 19:28:50;;;;;;;;;;;;;;;;;;6651251;26;20067;-62
2024/04/25 19:31:58;;;;;;;;;;;;;;;;;;6650959;26;19932;-62
2024/04/25 19:35:04;;;;;;;;;;;;;;;;;;6717811;26;19926;-61
2024/04/25 19:38:10;;;;;;;;;;;;;;;;;;6693874;26;19999;-61
2024/04/25 19:41:15;;;;;;;;;;;;;;;;;;6699394;26;19925;-61
2024/04/25 19:44:22;;;;;;;;;;;;;;;;;;6709854;26;20119;-61
2024/04/25 19:47:30;;;;;;;;;;;;;;;;;;6737769;26;19932;-62
2024/04/25 19:50:41;;;;;;;;;;;;;;;;;;6738440;26;19925;-61
2024/04/25 19:53:47;;;;;;;;;;;;;;;;;;6696707;26;20118;-61
2024/04/25 19:56:57;;;;;;;;;;;;;;;;;;6739750;26;19932;-61
2024/04/25 20:00:02;;;;;;;;;;;;;;;;;;6739488;26;19925;-62
2024/04/25 20:03:10;;;;;;;;;;;;;;;;;;6737998;26;20129;-64
2024/04/25 20:06:18;;;;;;;;;;;;;;;;;;6738716;26;19928;-62
2024/04/25 20:09:24;;;;;;;;;;;;;;;;;;6737504;26;20011;-63
2024/04/25 20:12:29;;;;;;;;;;;;;;;;;;6737798;26;19925;-62
2024/04/25 20:15:34;;;;;;;;;;;;;;;;;;6738411;26;19932;-63
2024/04/25 20:22:03;;;;;;;;;;;;;;;;;;6737487;26;19932;-62
2024/04/25 20:25:08;;;;;;;;;;;;;;;;;;6737493;26;20383;-62
2024/04/25 20:28:14;;;;;;;;;;;;;;;;;;6737113;26;19952;-62
2024/04/25 20:31:19;;;;;;;;;;;;;;;;;;6736364;26;19925;-61
2024/04/25 20:34:27;;;;;;;;;;;;;;;;;;6737510;26;19932;-61
2024/04/25 20:37:33;;;;;;;;;;;;;;;;;;6737410;26;19933;-62
2024/04/25 20:40:38;;;;;;;;;;;;;;;;;;6737603;26;19936;-62
2024/04/25 20:43:43;;;;;;;;;;;;;;;;;;6735798;26;19932;-62
2024/04/25 20:46:48;;;;;;;;;;;;;;;;;;6737539;26;21082;-62
2024/04/25 20:49:56;;;;;;;;;;;;;;;;;;6737234;26;19925;-64
2024/04/25 20:53:01;;;;;;;;;;;;;;;;;;6737147;26;19924;-62
2024/04/25 20:56:07;;;;;;;;;;;;;;;;;;6736289;26;20078;-62
2024/04/25 20:59:12;;;;;;;;;;;;;;;;;;6737023;26;19932;-62
2024/04/25 21:02:17;;;;;;;;;;;;;;;;;;6737365;26;19935;-61
2024/04/25 21:05:25;;;;;;;;;;;;;;;;;;6736772;26;19925;-62
2024/04/25 21:08:31;;;;;;;;;;;;;;;;;;6705881;26;19925;-62
2024/04/25 21:11:37;;;;;;;;;;;;;;;;;;6704839;26;19937;-62
2024/04/25 21:14:44;;;;;;;;;;;;;;;;;;6738549;26;19925;-62
2024/04/25 21:17:49;;;;;;;;;;;;;;;;;;6736776;26;19925;-61
2024/04/25 21:20:58;;;;;;;;;;;;;;;;;;6737097;26;19932;-62
2024/04/25 21:24:08;;;;;;;;;;;;;;;;;;6737284;26;19947;-62